Smyrna, Georgia
Current Conditions -  °F | °C
As of 3:58 AM on Friday 31 Oct 2014 (Local Time) from KMGE Reporting Station
Clear Clear  
Wind Chill: 44°   Ceiling: Unl
Heat Index: 44°   Visibility: 10mi
Dew Point: 40°   Wind: 3mph
Humidity: 85%   Direction: 290°WNW
Pressure: 29.94"   Gusts: NA
Location:  33.88°N, 84.51°W
Report Text: KMGE 310758Z AUTO 29003KT 10SM CLR 07/05 A2994 RMK AO2 SLP138 T00680045 $
Loading
Personal Weather Stations






























Interactive Weather Map New forecast layout! Learn more

10-Day Weather Forecast

Advertisements
Track Severe Weather on mobile